createdAt,value
2022-11-06T00:00:22.872Z,35.58
2022-11-06T00:00:52.899Z,35.60
2022-11-06T00:01:23.045Z,35.57
2022-11-06T00:01:53.012Z,35.62
2022-11-06T00:02:23.147Z,35.61
2022-11-06T00:02:53.096Z,35.59
2022-11-06T00:03:23.219Z,35.57
2022-11-06T00:03:53.259Z,35.62
2022-11-06T00:04:23.287Z,35.57
2022-11-06T00:04:53.327Z,35.58
2022-11-06T00:05:23.369Z,35.61
2022-11-06T00:05:53.421Z,35.61
2022-11-06T00:06:23.452Z,35.59
2022-11-06T00:06:53.482Z,35.58
2022-11-06T00:07:23.518Z,35.60
2022-11-06T00:07:53.550Z,35.58
2022-11-06T00:08:23.582Z,35.61
2022-11-06T00:08:53.611Z,35.58
2022-11-06T00:09:23.647Z,35.57
2022-11-06T00:09:53.674Z,35.61
2022-11-06T00:10:23.711Z,35.58
2022-11-06T00:10:53.801Z,35.57
2022-11-06T00:11:23.828Z,35.57
2022-11-06T00:11:53.867Z,35.62
2022-11-06T00:12:23.897Z,35.64
2022-11-06T00:12:53.952Z,35.61
2022-11-06T00:13:23.963Z,35.57
2022-11-06T00:13:54.004Z,35.57
2022-11-06T00:14:24.035Z,35.61
2022-11-06T00:14:54.064Z,35.61
2022-11-06T00:15:24.094Z,35.58
2022-11-06T00:15:54.128Z,35.61
2022-11-06T00:16:24.164Z,35.54
2022-11-06T00:16:54.202Z,35.63
2022-11-06T00:17:24.223Z,35.54
2022-11-06T00:17:54.252Z,35.63
2022-11-06T00:18:24.290Z,35.58
2022-11-06T00:18:54.332Z,35.59
2022-11-06T00:19:24.353Z,35.55
2022-11-06T00:19:54.386Z,35.59
2022-11-06T00:20:24.425Z,35.58
2022-11-06T00:20:54.463Z,35.59
2022-11-06T00:21:24.496Z,35.58
2022-11-06T00:21:54.532Z,35.57
2022-11-06T00:22:24.556Z,35.58
2022-11-06T00:22:54.599Z,35.58
2022-11-06T00:23:24.637Z,35.55
2022-11-06T00:23:54.666Z,35.54
2022-11-06T00:24:24.682Z,35.62
2022-11-06T00:24:54.804Z,35.59
2022-11-06T00:25:24.918Z,35.61
2022-11-06T00:25:55.056Z,35.59
2022-11-06T00:26:25.054Z,35.57
2022-11-06T00:26:55.170Z,35.55
2022-11-06T00:27:25.164Z,35.58
2022-11-06T00:27:55.281Z,35.61
2022-11-06T00:28:25.422Z,35.61
2022-11-06T00:28:55.395Z,35.57
2022-11-06T00:29:25.438Z,35.57
2022-11-06T00:29:55.555Z,35.58
2022-11-06T00:30:25.551Z,35.59
2022-11-06T00:30:55.683Z,35.53
2022-11-06T00:31:25.678Z,35.59
2022-11-06T00:31:55.671Z,35.54
2022-11-06T00:32:25.792Z,35.59
2022-11-06T00:32:55.797Z,35.61
2022-11-06T00:33:25.784Z,35.59
2022-11-06T00:33:55.904Z,35.54
2022-11-06T00:34:25.922Z,35.59
2022-11-06T00:34:55.958Z,35.59
2022-11-06T00:35:25.998Z,35.61
2022-11-06T00:35:56.041Z,35.59
2022-11-06T00:36:26.067Z,35.59
2022-11-06T00:36:56.095Z,35.57
2022-11-06T00:37:26.133Z,35.55
2022-11-06T00:37:56.160Z,35.59
2022-11-06T00:38:26.189Z,35.55
2022-11-06T00:38:56.220Z,35.58
2022-11-06T00:39:26.249Z,35.57
2022-11-06T00:39:56.284Z,35.59
2022-11-06T00:40:26.327Z,35.59
2022-11-06T00:40:56.363Z,35.58
2022-11-06T00:41:26.399Z,35.59
2022-11-06T00:41:56.426Z,35.58
2022-11-06T00:42:26.458Z,35.58
2022-11-06T00:42:56.496Z,35.57
2022-11-06T00:43:26.520Z,35.54
2022-11-06T00:43:56.574Z,35.58
2022-11-06T00:44:26.593Z,35.58
2022-11-06T00:44:56.631Z,35.59
2022-11-06T00:45:26.659Z,35.57
2022-11-06T00:45:56.702Z,35.55
2022-11-06T00:46:26.736Z,35.55
2022-11-06T00:46:56.793Z,35.54
2022-11-06T00:47:26.799Z,35.57
2022-11-06T00:47:56.831Z,35.57
2022-11-06T00:48:26.865Z,35.59
2022-11-06T00:48:56.893Z,35.51
2022-11-06T00:49:26.922Z,35.58
2022-11-06T00:49:56.950Z,35.54
2022-11-06T00:50:26.991Z,35.59
2022-11-06T00:50:57.024Z,35.56
2022-11-06T00:51:27.054Z,35.50
2022-11-06T00:51:57.085Z,35.54
2022-11-06T00:52:27.118Z,35.58
2022-11-06T00:52:57.154Z,35.57
2022-11-06T00:53:27.183Z,35.52
2022-11-06T00:53:57.216Z,35.48
2022-11-06T00:54:27.247Z,35.52
2022-11-06T00:54:57.295Z,35.55
2022-11-06T00:55:27.335Z,35.57
2022-11-06T00:55:57.371Z,35.55
2022-11-06T00:56:27.402Z,35.59
2022-11-06T00:56:57.436Z,35.51
2022-11-06T00:57:27.464Z,35.57
2022-11-06T00:57:57.498Z,35.56
2022-11-06T00:58:27.528Z,35.55
2022-11-06T00:58:57.560Z,35.54
2022-11-06T00:59:27.611Z,35.52
2022-11-06T00:59:57.632Z,35.57
2022-11-06T01:00:27.662Z,35.56
2022-11-06T01:00:57.691Z,35.56
2022-11-06T01:01:27.927Z,35.51
2022-11-06T01:01:57.867Z,35.59
2022-11-06T01:02:27.991Z,35.55
2022-11-06T01:02:58.166Z,35.51
2022-11-06T01:03:27.964Z,35.55
2022-11-06T01:03:57.989Z,35.56
2022-11-06T01:04:28.021Z,35.56
2022-11-06T01:04:58.072Z,35.49
2022-11-06T01:05:28.103Z,35.52
2022-11-06T01:05:58.135Z,35.56
2022-11-06T01:06:28.167Z,35.57
2022-11-06T01:06:58.197Z,35.56
2022-11-06T01:07:28.234Z,35.57
2022-11-06T01:07:58.266Z,35.55
2022-11-06T01:08:28.298Z,35.57
2022-11-06T01:08:58.334Z,35.59
2022-11-06T01:09:28.359Z,35.56
2022-11-06T01:09:58.413Z,35.55
2022-11-06T01:10:28.454Z,35.57
2022-11-06T01:10:58.488Z,35.59
2022-11-06T01:11:34.182Z,35.57
2022-11-06T01:12:14.599Z,35.56
2022-11-06T01:12:28.618Z,35.59
2022-11-06T01:12:58.649Z,35.59
2022-11-06T01:13:28.681Z,35.57
2022-11-06T01:13:58.710Z,35.55
2022-11-06T01:14:28.743Z,35.59
2022-11-06T01:14:58.802Z,35.58
2022-11-06T01:15:28.809Z,35.55
2022-11-06T01:15:58.844Z,35.57
2022-11-06T01:16:28.875Z,35.57
2022-11-06T01:16:58.904Z,35.53
2022-11-06T01:17:28.937Z,35.56
2022-11-06T01:17:58.970Z,35.57
2022-11-06T01:18:28.997Z,35.54
2022-11-06T01:18:59.037Z,35.57
2022-11-06T01:19:29.068Z,35.55
2022-11-06T01:19:59.099Z,35.54
2022-11-06T01:20:29.130Z,35.57
2022-11-06T01:20:59.164Z,35.52
2022-11-06T01:21:29.191Z,35.55
2022-11-06T01:21:59.232Z,35.51
2022-11-06T01:22:29.255Z,35.56
2022-11-06T01:22:59.283Z,35.57
2022-11-06T01:23:29.312Z,35.52
2022-11-06T01:23:59.343Z,35.53
2022-11-06T01:24:29.520Z,35.55
2022-11-06T01:24:59.496Z,35.55
2022-11-06T01:25:29.393Z,35.56
2022-11-06T01:25:59.395Z,35.53
2022-11-06T01:26:38.309Z,35.56
2022-11-06T01:27:29.553Z,35.61
2022-11-06T01:27:59.560Z,35.55
2022-11-06T01:28:29.550Z,35.63
2022-11-06T01:28:59.546Z,35.55
2022-11-06T01:29:29.666Z,35.56
2022-11-06T01:29:59.672Z,35.52
2022-11-06T01:30:29.696Z,35.54
2022-11-06T01:30:59.794Z,35.48
2022-11-06T01:31:29.797Z,35.52
2022-11-06T01:31:59.912Z,35.53
2022-11-06T01:32:29.905Z,35.55
2022-11-06T01:33:00.027Z,35.53
2022-11-06T01:33:30.016Z,35.49
2022-11-06T01:34:00.149Z,35.53
2022-11-06T01:34:30.156Z,35.53
2022-11-06T01:35:00.190Z,35.52
2022-11-06T01:35:30.223Z,35.55
2022-11-06T01:36:00.255Z,35.52
2022-11-06T01:36:30.292Z,35.53
2022-11-06T01:37:00.326Z,35.52
2022-11-06T01:37:30.358Z,35.56
2022-11-06T01:38:00.387Z,35.55
2022-11-06T01:38:30.426Z,35.55
2022-11-06T01:39:00.465Z,35.56
2022-11-06T01:39:30.499Z,35.57
2022-11-06T01:40:00.538Z,35.57
2022-11-06T01:40:30.564Z,35.50
2022-11-06T01:41:00.599Z,35.53
2022-11-06T01:41:30.637Z,35.53
2022-11-06T01:42:00.670Z,35.49
2022-11-06T01:42:30.703Z,35.56
2022-11-06T01:43:00.738Z,35.56
2022-11-06T01:43:30.769Z,35.56
2022-11-06T01:44:00.812Z,35.50
2022-11-06T01:44:30.856Z,35.56
2022-11-06T01:45:00.886Z,35.55
2022-11-06T01:45:30.929Z,35.56
2022-11-06T01:46:00.977Z,35.53
2022-11-06T01:46:30.990Z,35.56
2022-11-06T01:47:01.024Z,35.53
2022-11-06T01:47:31.058Z,35.51
2022-11-06T01:48:01.101Z,35.56
2022-11-06T01:48:31.132Z,35.49
2022-11-06T01:49:01.166Z,35.53
2022-11-06T01:49:31.212Z,35.55
2022-11-06T01:50:01.247Z,35.50
2022-11-06T01:50:31.275Z,35.55
2022-11-06T01:51:01.324Z,35.55
2022-11-06T01:51:31.339Z,35.49
2022-11-06T01:52:01.370Z,35.50
2022-11-06T01:52:31.412Z,35.52
2022-11-06T01:53:01.441Z,35.52
2022-11-06T01:53:31.469Z,35.53
2022-11-06T01:54:01.506Z,35.57
2022-11-06T01:54:31.551Z,35.53
2022-11-06T01:55:01.583Z,35.55
2022-11-06T01:55:31.615Z,35.52
2022-11-06T01:56:01.651Z,35.49
2022-11-06T01:56:31.683Z,35.56
2022-11-06T01:57:01.718Z,35.53
2022-11-06T01:57:31.749Z,35.46
2022-11-06T01:58:01.780Z,35.56
2022-11-06T01:58:31.816Z,35.47
2022-11-06T01:59:01.849Z,35.50
2022-11-06T01:59:31.892Z,35.56
2022-11-06T02:00:01.923Z,35.51
2022-11-06T02:00:31.953Z,35.47
2022-11-06T02:01:01.984Z,35.50
2022-11-06T02:01:32.141Z,35.53
2022-11-06T02:02:02.239Z,35.49
2022-11-06T02:02:32.275Z,35.51
2022-11-06T02:03:02.286Z,35.46
2022-11-06T02:03:32.183Z,35.53
2022-11-06T02:04:02.233Z,35.52
2022-11-06T02:04:32.281Z,35.50
2022-11-06T02:05:02.318Z,35.49
2022-11-06T02:05:32.346Z,35.46
2022-11-06T02:06:02.386Z,35.50
2022-11-06T02:06:32.433Z,35.52
2022-11-06T02:07:02.538Z,35.53
2022-11-06T02:07:32.565Z,35.49
2022-11-06T02:08:02.603Z,35.52
2022-11-06T02:08:32.626Z,35.51
2022-11-06T02:09:02.677Z,35.50
2022-11-06T02:09:32.715Z,35.49
2022-11-06T02:10:02.752Z,35.49
2022-11-06T02:10:32.792Z,35.50
2022-11-06T02:11:02.836Z,35.51
2022-11-06T02:11:32.878Z,35.52
2022-11-06T02:12:02.921Z,35.55
2022-11-06T02:12:32.946Z,35.45
2022-11-06T02:13:02.976Z,35.51
2022-11-06T02:13:33.013Z,35.47
2022-11-06T02:14:03.046Z,35.53
2022-11-06T02:14:33.092Z,35.50
2022-11-06T02:15:03.134Z,35.50
2022-11-06T02:15:33.161Z,35.50
2022-11-06T02:16:03.196Z,35.49
2022-11-06T02:16:33.231Z,35.50
2022-11-06T02:17:03.287Z,35.49
2022-11-06T02:17:33.294Z,35.50
2022-11-06T02:18:03.330Z,35.47
2022-11-06T02:18:33.359Z,35.49
2022-11-06T02:19:03.428Z,35.50
2022-11-06T02:19:33.457Z,35.50
2022-11-06T02:20:03.503Z,35.46
2022-11-06T02:20:33.534Z,35.54
2022-11-06T02:21:03.567Z,35.49
2022-11-06T02:21:33.601Z,35.47
2022-11-06T02:22:03.635Z,35.50
2022-11-06T02:22:33.664Z,35.47
2022-11-06T02:23:03.710Z,35.55
2022-11-06T02:23:33.742Z,35.44
2022-11-06T02:24:03.840Z,35.46
2022-11-06T02:24:33.839Z,35.47
2022-11-06T02:25:03.844Z,35.49
2022-11-06T02:25:33.838Z,35.50
2022-11-06T02:26:03.839Z,35.51
2022-11-06T02:26:33.958Z,35.46
2022-11-06T02:27:04.076Z,35.51
2022-11-06T02:27:34.077Z,35.48
2022-11-06T02:28:04.195Z,35.50
2022-11-06T02:28:34.191Z,35.50
2022-11-06T02:29:04.220Z,35.52
2022-11-06T02:29:34.214Z,35.44
2022-11-06T02:30:04.328Z,35.52
2022-11-06T02:30:34.330Z,35.47
2022-11-06T02:31:04.347Z,35.51
2022-11-06T02:31:34.339Z,35.43
2022-11-06T02:32:04.315Z,35.46
2022-11-06T02:32:34.355Z,35.46
2022-11-06T02:33:04.344Z,35.46
2022-11-06T02:33:34.361Z,35.47
2022-11-06T02:34:04.362Z,35.51
2022-11-06T02:34:34.371Z,35.47
2022-11-06T02:35:04.409Z,35.49
2022-11-06T02:35:34.441Z,35.47
2022-11-06T02:36:04.473Z,35.46
2022-11-06T02:36:34.508Z,35.46
2022-11-06T02:37:04.536Z,35.47
2022-11-06T02:37:34.570Z,35.44
2022-11-06T02:38:04.604Z,35.48
2022-11-06T02:38:34.635Z,35.48
2022-11-06T02:39:04.682Z,35.51
2022-11-06T02:39:34.717Z,35.46
2022-11-06T02:40:04.746Z,35.48
2022-11-06T02:40:34.783Z,35.50
2022-11-06T02:41:04.811Z,35.44
2022-11-06T02:41:34.843Z,35.41
2022-11-06T02:42:04.879Z,35.43
2022-11-06T02:42:34.908Z,35.49
2022-11-06T02:43:04.945Z,35.44
2022-11-06T02:43:34.978Z,35.51
2022-11-06T02:44:05.025Z,35.46
2022-11-06T02:44:35.057Z,35.41
2022-11-06T02:45:05.091Z,35.47
2022-11-06T02:45:35.205Z,35.44
2022-11-06T02:46:05.204Z,35.50
2022-11-06T02:46:35.240Z,35.44
2022-11-06T02:47:05.271Z,35.46
2022-11-06T02:47:35.304Z,35.46
2022-11-06T02:48:05.362Z,35.46
2022-11-06T02:48:35.369Z,35.41
2022-11-06T02:49:05.416Z,35.43
2022-11-06T02:49:35.457Z,35.43
2022-11-06T02:50:05.483Z,35.51
2022-11-06T02:50:35.529Z,35.46
2022-11-06T02:51:05.559Z,35.41
2022-11-06T02:51:35.586Z,35.44
2022-11-06T02:52:05.612Z,35.46
2022-11-06T02:52:35.654Z,35.50
2022-11-06T02:53:05.686Z,35.45
2022-11-06T02:53:35.719Z,35.48
2022-11-06T02:54:05.770Z,35.45
2022-11-06T02:54:35.801Z,35.48
2022-11-06T02:55:05.836Z,35.52
2022-11-06T02:55:35.870Z,35.46
2022-11-06T02:56:05.897Z,35.43
2022-11-06T02:56:35.936Z,35.47
2022-11-06T02:57:05.973Z,35.48
2022-11-06T02:57:36.012Z,35.45
2022-11-06T02:58:06.046Z,35.46
2022-11-06T02:58:38.952Z,35.47
2022-11-06T02:59:06.110Z,35.46
2022-11-06T02:59:36.155Z,35.44
2022-11-06T03:00:06.184Z,35.49
2022-11-06T03:00:36.214Z,35.47
2022-11-06T03:01:06.253Z,35.48
2022-11-06T03:01:36.454Z,35.44
2022-11-06T03:02:06.569Z,35.47
2022-11-06T03:02:36.673Z,35.48
2022-11-06T03:03:06.639Z,35.49
2022-11-06T03:03:36.614Z,35.44
2022-11-06T03:04:06.626Z,35.51
2022-11-06T03:04:36.673Z,35.49
2022-11-06T03:05:06.714Z,35.48
2022-11-06T03:05:36.748Z,35.47
2022-11-06T03:06:06.781Z,35.49
2022-11-06T03:06:36.831Z,35.47
2022-11-06T03:07:06.865Z,35.48
2022-11-06T03:07:36.897Z,35.44
2022-11-06T03:08:06.943Z,35.48
2022-11-06T03:08:36.965Z,35.44
2022-11-06T03:09:06.998Z,35.42
2022-11-06T03:09:37.057Z,35.47
2022-11-06T03:10:07.086Z,35.48
2022-11-06T03:10:37.123Z,35.48
2022-11-06T03:11:07.154Z,35.48
2022-11-06T03:11:37.189Z,35.42
2022-11-06T03:12:07.217Z,35.42
2022-11-06T03:12:37.250Z,35.48
2022-11-06T03:13:07.285Z,35.44
2022-11-06T03:13:37.319Z,35.47
2022-11-06T03:14:07.352Z,35.46
2022-11-06T03:14:37.392Z,35.44
2022-11-06T03:15:07.427Z,35.47
2022-11-06T03:15:37.460Z,35.48
2022-11-06T03:16:07.489Z,35.45
2022-11-06T03:16:37.522Z,35.37
2022-11-06T03:17:07.555Z,35.45
2022-11-06T03:17:37.585Z,35.40
2022-11-06T03:18:07.621Z,35.44
2022-11-06T03:18:37.656Z,35.46
2022-11-06T03:19:07.733Z,35.44
2022-11-06T03:19:37.744Z,35.40
2022-11-06T03:20:07.776Z,35.44
2022-11-06T03:20:37.801Z,35.45
2022-11-06T03:21:07.835Z,35.47
2022-11-06T03:21:37.864Z,35.41
2022-11-06T03:22:07.893Z,35.44
2022-11-06T03:22:37.925Z,35.42
2022-11-06T03:23:07.958Z,35.48
2022-11-06T03:23:37.986Z,35.45
2022-11-06T03:24:08.039Z,35.45
2022-11-06T03:24:38.038Z,35.48
2022-11-06T03:25:08.050Z,35.44
2022-11-06T03:25:38.040Z,35.44
2022-11-06T03:26:08.038Z,35.42
2022-11-06T03:26:38.156Z,35.41
2022-11-06T03:27:08.151Z,35.44
2022-11-06T03:27:38.267Z,35.45
2022-11-06T03:28:08.266Z,35.44
2022-11-06T03:28:38.383Z,35.41
2022-11-06T03:29:08.392Z,35.42
2022-11-06T03:29:38.389Z,35.42
2022-11-06T03:30:12.543Z,35.44
2022-11-06T03:30:38.398Z,35.41
2022-11-06T03:31:08.512Z,35.48
2022-11-06T03:31:38.632Z,35.42
2022-11-06T03:32:08.633Z,35.40
2022-11-06T03:32:38.745Z,35.42
2022-11-06T03:33:08.863Z,35.45
2022-11-06T03:33:38.862Z,35.41
2022-11-06T03:34:08.889Z,35.42
2022-11-06T03:34:38.941Z,35.40
2022-11-06T03:35:08.949Z,35.42
2022-11-06T03:35:38.981Z,35.44
2022-11-06T03:36:09.017Z,35.44
2022-11-06T03:36:39.047Z,35.41
2022-11-06T03:37:09.083Z,35.41
2022-11-06T03:37:39.110Z,35.37
2022-11-06T03:38:09.141Z,35.44
2022-11-06T03:38:42.231Z,35.41
2022-11-06T03:39:09.226Z,35.44
2022-11-06T03:39:39.260Z,35.44
2022-11-06T03:40:09.289Z,35.38
2022-11-06T03:40:39.327Z,35.41
2022-11-06T03:41:09.378Z,35.41
2022-11-06T03:41:39.411Z,35.48
2022-11-06T03:42:09.446Z,35.46
2022-11-06T03:42:39.478Z,35.41
2022-11-06T03:43:09.509Z,35.37
2022-11-06T03:43:39.542Z,35.46
2022-11-06T03:44:09.606Z,35.42
2022-11-06T03:44:39.643Z,35.47
2022-11-06T03:45:09.679Z,35.42
2022-11-06T03:45:39.706Z,35.46
2022-11-06T03:46:09.735Z,35.44
2022-11-06T03:46:39.777Z,35.45
2022-11-06T03:47:09.806Z,35.44
2022-11-06T03:47:39.841Z,35.42
2022-11-06T03:48:10.069Z,35.47
2022-11-06T03:48:39.887Z,35.44
2022-11-06T03:49:09.927Z,35.45
2022-11-06T03:49:39.957Z,35.41
2022-11-06T03:50:10.018Z,35.46
2022-11-06T03:50:40.026Z,35.44
2022-11-06T03:51:10.055Z,35.37
2022-11-06T03:51:40.092Z,35.37
2022-11-06T03:52:10.125Z,35.41
2022-11-06T03:52:42.511Z,35.41
2022-11-06T03:53:10.232Z,35.41
2022-11-06T03:53:40.269Z,35.44
2022-11-06T03:54:10.316Z,35.42
2022-11-06T03:54:40.345Z,35.37
2022-11-06T03:55:10.377Z,35.44
2022-11-06T03:55:40.405Z,35.41
2022-11-06T03:56:10.433Z,35.40
2022-11-06T03:56:40.471Z,35.41
2022-11-06T03:57:10.499Z,35.40
2022-11-06T03:57:40.548Z,35.41
2022-11-06T03:58:10.961Z,35.40
2022-11-06T03:58:40.698Z,35.38
2022-11-06T03:59:10.739Z,35.38
2022-11-06T03:59:40.640Z,35.42
2022-11-06T04:00:10.667Z,35.39
2022-11-06T04:00:40.707Z,35.46
2022-11-06T04:01:10.733Z,35.44
2022-11-06T04:01:40.863Z,35.48
2022-11-06T04:02:11.013Z,35.46
2022-11-06T04:02:41.073Z,35.49
2022-11-06T04:03:11.023Z,35.40
2022-11-06T04:03:41.061Z,35.45
2022-11-06T04:04:11.096Z,35.42
2022-11-06T04:04:41.133Z,35.40
2022-11-06T04:05:11.156Z,35.44
2022-11-06T04:05:41.212Z,35.40
2022-11-06T04:06:11.216Z,35.40
2022-11-06T04:06:41.254Z,35.35
2022-11-06T04:07:11.289Z,35.40
2022-11-06T04:07:41.315Z,35.46
2022-11-06T04:08:11.819Z,35.40
2022-11-06T04:08:41.381Z,35.46
2022-11-06T04:09:11.412Z,35.42
2022-11-06T04:09:41.442Z,35.42
2022-11-06T04:10:11.471Z,35.46
2022-11-06T04:10:41.499Z,35.42
2022-11-06T04:11:11.532Z,35.42
2022-11-06T04:11:41.564Z,35.38
2022-11-06T04:12:11.595Z,35.38
2022-11-06T04:12:41.625Z,35.42
2022-11-06T04:13:11.659Z,35.42
2022-11-06T04:13:41.700Z,35.42
2022-11-06T04:14:11.734Z,35.40
2022-11-06T04:14:41.762Z,35.45
2022-11-06T04:15:11.792Z,35.42
2022-11-06T04:15:41.827Z,35.40
2022-11-06T04:16:11.856Z,35.44
2022-11-06T04:16:41.884Z,35.42
2022-11-06T04:17:11.918Z,35.38
2022-11-06T04:17:41.950Z,35.46
2022-11-06T04:18:12.264Z,35.45
2022-11-06T04:18:42.076Z,35.44
2022-11-06T04:19:12.108Z,35.49
2022-11-06T04:19:42.144Z,35.46
2022-11-06T04:20:12.176Z,35.39
2022-11-06T04:20:42.204Z,35.45
2022-11-06T04:21:12.268Z,35.40
2022-11-06T04:21:42.273Z,35.45
2022-11-06T04:22:12.304Z,35.41
2022-11-06T04:22:42.338Z,35.46
2022-11-06T04:23:12.376Z,35.44
2022-11-06T04:23:42.405Z,35.40
2022-11-06T04:24:12.437Z,35.44
2022-11-06T04:24:42.432Z,35.44
2022-11-06T04:25:12.544Z,35.45
2022-11-06T04:25:42.545Z,35.45
2022-11-06T04:26:12.666Z,35.41
2022-11-06T04:26:42.782Z,35.40
2022-11-06T04:27:12.893Z,35.39
2022-11-06T04:27:43.016Z,35.44
2022-11-06T04:28:13.383Z,35.39
2022-11-06T04:28:43.241Z,35.39
2022-11-06T04:29:13.242Z,35.45
2022-11-06T04:29:43.365Z,35.41
2022-11-06T04:30:13.471Z,35.42
2022-11-06T04:30:43.592Z,35.45
2022-11-06T04:31:13.709Z,35.43
2022-11-06T04:31:43.831Z,35.42
2022-11-06T04:32:13.826Z,35.38
2022-11-06T04:32:43.935Z,35.42
2022-11-06T04:33:14.059Z,35.39
2022-11-06T04:33:44.061Z,35.43
2022-11-06T04:34:14.067Z,35.42
2022-11-06T04:34:44.098Z,35.42
2022-11-06T04:35:14.138Z,35.45
2022-11-06T04:35:44.178Z,35.43
2022-11-06T04:36:14.198Z,35.36
2022-11-06T04:36:44.408Z,35.42
2022-11-06T04:37:14.281Z,35.45
2022-11-06T04:37:44.316Z,35.42
2022-11-06T04:38:14.807Z,35.43
2022-11-06T04:38:44.393Z,35.38
2022-11-06T04:39:14.413Z,35.44
2022-11-06T04:39:44.445Z,35.42
2022-11-06T04:40:14.475Z,35.42
2022-11-06T04:40:44.511Z,35.45
2022-11-06T04:41:14.543Z,35.39
2022-11-06T04:41:44.569Z,35.46
2022-11-06T04:42:14.603Z,35.45
2022-11-06T04:42:44.636Z,35.44
2022-11-06T04:43:14.682Z,35.47
2022-11-06T04:43:44.711Z,35.42
2022-11-06T04:44:14.745Z,35.40
2022-11-06T04:44:44.771Z,35.43
2022-11-06T04:45:14.814Z,35.44
2022-11-06T04:45:44.838Z,35.43
2022-11-06T04:46:14.869Z,35.43
2022-11-06T04:46:44.904Z,35.42
2022-11-06T04:47:14.940Z,35.42
2022-11-06T04:47:44.977Z,35.42
2022-11-06T04:48:15.488Z,35.39
2022-11-06T04:48:45.015Z,35.42
2022-11-06T04:49:15.057Z,35.42
2022-11-06T04:49:45.084Z,35.43
2022-11-06T04:50:15.114Z,35.42
2022-11-06T04:50:45.135Z,35.38
2022-11-06T04:51:15.173Z,35.42
2022-11-06T04:51:45.201Z,35.40
2022-11-06T04:52:15.269Z,35.40
2022-11-06T04:52:45.268Z,35.42
2022-11-06T04:53:15.337Z,35.47
2022-11-06T04:53:45.384Z,35.43
2022-11-06T04:54:15.418Z,35.42
2022-11-06T04:54:45.439Z,35.44
2022-11-06T04:55:15.467Z,35.41
2022-11-06T04:55:45.498Z,35.39
2022-11-06T04:56:20.113Z,35.39
2022-11-06T04:56:46.536Z,35.43
2022-11-06T04:57:15.642Z,35.44
2022-11-06T04:57:45.668Z,35.44
2022-11-06T04:58:16.100Z,35.50
2022-11-06T04:58:45.777Z,35.40
2022-11-06T04:59:15.808Z,35.46
2022-11-06T04:59:45.837Z,35.42
2022-11-06T05:00:15.874Z,35.43
2022-11-06T05:00:46.004Z,35.44
2022-11-06T05:01:16.003Z,35.42
2022-11-06T05:01:46.113Z,35.49
2022-11-06T05:02:16.016Z,35.44
2022-11-06T05:02:45.942Z,35.41
2022-11-06T05:03:16.001Z,35.40
2022-11-06T05:03:46.024Z,35.42
2022-11-06T05:04:16.059Z,35.44
2022-11-06T05:04:46.090Z,35.36
2022-11-06T05:05:16.117Z,35.39
2022-11-06T05:05:46.155Z,35.45
2022-11-06T05:06:16.183Z,35.42
2022-11-06T05:06:46.211Z,35.40
2022-11-06T05:07:16.247Z,35.43
2022-11-06T05:07:46.301Z,35.41
2022-11-06T05:08:16.667Z,35.43
2022-11-06T05:08:46.323Z,35.38
2022-11-06T05:09:16.373Z,35.38
2022-11-06T05:09:46.403Z,35.36
2022-11-06T05:10:16.438Z,35.39
2022-11-06T05:10:46.471Z,35.43
2022-11-06T05:11:16.503Z,35.36
2022-11-06T05:11:46.538Z,35.40
2022-11-06T05:12:16.568Z,35.40
2022-11-06T05:12:46.594Z,35.38
2022-11-06T05:13:16.904Z,35.40
2022-11-06T05:13:46.678Z,35.38
2022-11-06T05:14:16.711Z,35.36
2022-11-06T05:14:46.741Z,35.38
2022-11-06T05:15:16.771Z,35.39
2022-11-06T05:15:46.805Z,35.38
2022-11-06T05:16:16.841Z,35.39
2022-11-06T05:16:46.868Z,35.43
2022-11-06T05:17:16.907Z,35.36
2022-11-06T05:17:46.903Z,35.39
2022-11-06T05:18:17.178Z,35.44
2022-11-06T05:18:46.968Z,35.36
2022-11-06T05:19:17.005Z,35.38
2022-11-06T05:19:47.028Z,35.41
2022-11-06T05:20:17.060Z,35.37
2022-11-06T05:20:47.091Z,35.43
2022-11-06T05:21:17.122Z,35.36
2022-11-06T05:21:47.155Z,35.33
2022-11-06T05:22:17.187Z,35.40
2022-11-06T05:22:47.215Z,35.41
2022-11-06T05:23:17.290Z,35.36
2022-11-06T05:23:47.297Z,35.42
2022-11-06T05:24:17.322Z,35.40
2022-11-06T05:24:47.430Z,35.39
2022-11-06T05:25:17.550Z,35.39
2022-11-06T05:25:47.662Z,35.39
2022-11-06T05:26:17.659Z,35.39
2022-11-06T05:26:47.653Z,35.39
2022-11-06T05:27:17.770Z,35.43
2022-11-06T05:27:47.763Z,35.40
2022-11-06T05:28:17.910Z,35.47
2022-11-06T05:28:47.898Z,35.40
2022-11-06T05:29:17.901Z,35.37
2022-11-06T05:29:47.896Z,35.43
2022-11-06T05:30:18.009Z,35.44
2022-11-06T05:30:48.002Z,35.40
2022-11-06T05:31:18.000Z,35.40
2022-11-06T05:31:48.000Z,35.41
2022-11-06T05:32:17.999Z,35.37
2022-11-06T05:32:47.995Z,35.39
2022-11-06T05:33:18.136Z,35.39
2022-11-06T05:33:48.127Z,35.38
2022-11-06T05:34:18.131Z,35.41
2022-11-06T05:34:48.166Z,35.33
2022-11-06T05:35:18.200Z,35.39
2022-11-06T05:35:48.231Z,35.39
2022-11-06T05:36:18.269Z,35.39
2022-11-06T05:36:48.299Z,35.39
2022-11-06T05:37:18.329Z,35.37
2022-11-06T05:37:48.362Z,35.43
2022-11-06T05:38:18.433Z,35.36
2022-11-06T05:38:48.603Z,35.41
2022-11-06T05:39:18.461Z,35.40
2022-11-06T05:39:48.493Z,35.36
2022-11-06T05:40:18.533Z,35.38
2022-11-06T05:40:48.564Z,35.36
2022-11-06T05:41:18.599Z,35.39
2022-11-06T05:41:48.675Z,35.37
2022-11-06T05:42:18.687Z,35.40
2022-11-06T05:42:48.718Z,35.36
2022-11-06T05:43:18.780Z,35.37
2022-11-06T05:43:48.814Z,35.41
2022-11-06T05:44:18.870Z,35.42
2022-11-06T05:44:48.899Z,35.37
2022-11-06T05:45:18.930Z,35.39
2022-11-06T05:45:48.961Z,35.37
2022-11-06T05:46:46.503Z,35.38
2022-11-06T05:46:50.028Z,35.37
2022-11-06T05:47:19.126Z,35.37
2022-11-06T05:47:49.151Z,35.39
2022-11-06T05:48:19.218Z,35.41
2022-11-06T05:48:49.249Z,35.40
2022-11-06T05:49:19.295Z,35.40
2022-11-06T05:49:49.313Z,35.37
2022-11-06T05:50:19.351Z,35.39
2022-11-06T05:50:49.377Z,35.39
2022-11-06T05:51:19.412Z,35.39
2022-11-06T05:51:49.507Z,35.41
2022-11-06T05:52:19.515Z,35.41
2022-11-06T05:52:49.550Z,35.41
2022-11-06T05:53:19.611Z,35.45
2022-11-06T05:53:49.631Z,35.44
2022-11-06T05:54:19.688Z,35.39
2022-11-06T05:54:49.696Z,35.44
2022-11-06T05:55:19.729Z,35.34
2022-11-06T05:55:49.753Z,35.37
2022-11-06T05:56:19.785Z,35.39
2022-11-06T05:56:49.811Z,35.39
2022-11-06T05:57:19.838Z,35.40
2022-11-06T05:57:49.870Z,35.41
2022-11-06T05:58:19.897Z,35.40
2022-11-06T05:58:49.928Z,35.37
2022-11-06T05:59:19.962Z,35.40
2022-11-06T05:59:49.990Z,35.40
2022-11-06T06:00:20.023Z,35.34
2022-11-06T06:00:50.058Z,35.32
2022-11-06T06:01:20.179Z,35.37
2022-11-06T06:01:50.236Z,35.40
2022-11-06T06:02:20.385Z,35.36
2022-11-06T06:02:50.374Z,35.34
2022-11-06T06:03:20.299Z,35.37
2022-11-06T06:03:50.335Z,35.41
2022-11-06T06:04:20.362Z,35.37
2022-11-06T06:04:50.392Z,35.40
2022-11-06T06:05:20.427Z,35.37
2022-11-06T06:05:50.452Z,35.37
2022-11-06T06:06:20.488Z,35.39
2022-11-06T06:06:50.522Z,35.40
2022-11-06T06:07:20.551Z,35.44
2022-11-06T06:07:50.582Z,35.44
2022-11-06T06:08:20.614Z,35.39
2022-11-06T06:08:50.647Z,35.37
2022-11-06T06:09:20.683Z,35.34
2022-11-06T06:09:50.816Z,35.39
2022-11-06T06:10:20.807Z,35.31
2022-11-06T06:10:50.837Z,35.36
2022-11-06T06:11:20.879Z,35.40
2022-11-06T06:11:50.894Z,35.33
2022-11-06T06:12:20.928Z,35.36
2022-11-06T06:12:50.957Z,35.37
2022-11-06T06:13:20.983Z,35.37
2022-11-06T06:13:51.019Z,35.39
2022-11-06T06:14:21.051Z,35.40
2022-11-06T06:14:51.074Z,35.40
2022-11-06T06:15:21.108Z,35.31
2022-11-06T06:15:51.142Z,35.34
2022-11-06T06:16:21.167Z,35.35
2022-11-06T06:16:51.195Z,35.38
2022-11-06T06:17:21.225Z,35.34
2022-11-06T06:17:51.253Z,35.36
2022-11-06T06:18:21.281Z,35.37
2022-11-06T06:18:51.315Z,35.37
2022-11-06T06:19:21.345Z,35.40
2022-11-06T06:19:51.389Z,35.39
2022-11-06T06:20:21.419Z,35.39
2022-11-06T06:20:51.445Z,35.41
2022-11-06T06:21:21.477Z,35.36
2022-11-06T06:21:51.507Z,35.35
2022-11-06T06:22:21.535Z,35.34
2022-11-06T06:22:51.571Z,35.30
2022-11-06T06:23:21.596Z,35.38
2022-11-06T06:23:51.621Z,35.42
2022-11-06T06:24:21.645Z,35.41
2022-11-06T06:24:51.709Z,35.41
2022-11-06T06:25:23.131Z,35.36
2022-11-06T06:25:51.735Z,35.39
2022-11-06T06:26:21.846Z,35.41
2022-11-06T06:26:51.964Z,35.38
2022-11-06T06:27:21.959Z,35.40